sensor_id;sensor_type;location;lat;lon;timestamp;P1;durP1;ratioP1;P2;durP2;ratioP2
45620;SDS011;31345;51.522;10.702;2022-10-16T00:00:45;3.30;;;1.30;;
45620;SDS011;31345;51.522;10.702;2022-10-16T00:03:12;1.98;;;1.33;;
45620;SDS011;31345;51.522;10.702;2022-10-16T00:05:41;1.90;;;1.40;;
45620;SDS011;31345;51.522;10.702;2022-10-16T00:08:11;2.00;;;1.40;;
45620;SDS011;31345;51.522;10.702;2022-10-16T00:10:40;2.25;;;1.42;;
45620;SDS011;31345;51.522;10.702;2022-10-16T00:13:08;3.10;;;1.60;;
45620;SDS011;31345;51.522;10.702;2022-10-16T00:15:36;3.42;;;1.70;;
45620;SDS011;31345;51.522;10.702;2022-10-16T00:18:05;5.00;;;1.60;;
45620;SDS011;31345;51.522;10.702;2022-10-16T00:20:34;3.90;;;1.67;;
45620;SDS011;31345;51.522;10.702;2022-10-16T00:23:03;6.75;;;1.58;;
45620;SDS011;31345;51.522;10.702;2022-10-16T00:25:31;1.70;;;1.40;;
45620;SDS011;31345;51.522;10.702;2022-10-16T00:28:01;3.63;;;1.58;;
45620;SDS011;31345;51.522;10.702;2022-10-16T00:30:29;3.60;;;1.98;;
45620;SDS011;31345;51.522;10.702;2022-10-16T00:32:56;3.47;;;1.75;;
45620;SDS011;31345;51.522;10.702;2022-10-16T00:35:24;2.97;;;1.63;;
45620;SDS011;31345;51.522;10.702;2022-10-16T00:37:52;2.03;;;1.35;;
45620;SDS011;31345;51.522;10.702;2022-10-16T00:40:20;2.72;;;1.67;;
45620;SDS011;31345;51.522;10.702;2022-10-16T00:42:47;1.75;;;1.40;;
45620;SDS011;31345;51.522;10.702;2022-10-16T00:45:16;6.25;;;1.75;;
45620;SDS011;31345;51.522;10.702;2022-10-16T00:47:45;4.60;;;1.77;;
45620;SDS011;31345;51.522;10.702;2022-10-16T00:50:16;3.13;;;1.70;;
45620;SDS011;31345;51.522;10.702;2022-10-16T00:52:48;2.95;;;1.92;;
45620;SDS011;31345;51.522;10.702;2022-10-16T00:55:18;1.80;;;1.42;;
45620;SDS011;31345;51.522;10.702;2022-10-16T00:57:46;2.70;;;1.40;;
45620;SDS011;31345;51.522;10.702;2022-10-16T01:00:19;3.42;;;1.50;;
45620;SDS011;31345;51.522;10.702;2022-10-16T01:02:51;2.50;;;1.65;;
45620;SDS011;31345;51.522;10.702;2022-10-16T01:05:20;2.07;;;1.57;;
45620;SDS011;31345;51.522;10.702;2022-10-16T01:07:51;3.75;;;1.70;;
45620;SDS011;31345;51.522;10.702;2022-10-16T01:10:35;3.17;;;1.48;;
45620;SDS011;31345;51.522;10.702;2022-10-16T01:13:09;2.42;;;1.90;;
45620;SDS011;31345;51.522;10.702;2022-10-16T01:15:42;2.00;;;1.48;;
45620;SDS011;31345;51.522;10.702;2022-10-16T01:18:16;3.83;;;1.63;;
45620;SDS011;31345;51.522;10.702;2022-10-16T01:20:53;3.90;;;1.83;;
45620;SDS011;31345;51.522;10.702;2022-10-16T01:23:29;2.25;;;1.60;;
45620;SDS011;31345;51.522;10.702;2022-10-16T01:26:13;2.53;;;1.90;;
45620;SDS011;31345;51.522;10.702;2022-10-16T01:28:51;2.25;;;1.55;;
45620;SDS011;31345;51.522;10.702;2022-10-16T01:31:24;2.90;;;1.88;;
45620;SDS011;31345;51.522;10.702;2022-10-16T01:36:26;1.83;;;1.60;;
45620;SDS011;31345;51.522;10.702;2022-10-16T01:38:59;3.70;;;1.60;;
45620;SDS011;31345;51.522;10.702;2022-10-16T01:41:30;4.15;;;1.60;;
45620;SDS011;31345;51.522;10.702;2022-10-16T01:44:02;2.97;;;1.65;;
45620;SDS011;31345;51.522;10.702;2022-10-16T01:46:34;3.38;;;1.58;;
45620;SDS011;31345;51.522;10.702;2022-10-16T01:51:33;2.05;;;1.38;;
45620;SDS011;31345;51.522;10.702;2022-10-16T01:54:02;2.05;;;1.50;;
45620;SDS011;31345;51.522;10.702;2022-10-16T01:56:34;2.22;;;1.50;;
45620;SDS011;31345;51.522;10.702;2022-10-16T01:59:06;1.95;;;1.50;;
45620;SDS011;31345;51.522;10.702;2022-10-16T02:01:38;2.22;;;1.50;;
45620;SDS011;31345;51.522;10.702;2022-10-16T02:04:11;3.67;;;1.50;;
45620;SDS011;31345;51.522;10.702;2022-10-16T02:06:42;4.18;;;1.63;;
45620;SDS011;31345;51.522;10.702;2022-10-16T02:09:10;7.35;;;1.83;;
45620;SDS011;31345;51.522;10.702;2022-10-16T02:11:38;2.42;;;1.50;;
45620;SDS011;31345;51.522;10.702;2022-10-16T02:14:07;4.15;;;1.85;;
45620;SDS011;31345;51.522;10.702;2022-10-16T02:16:36;3.40;;;1.60;;
45620;SDS011;31345;51.522;10.702;2022-10-16T02:19:11;3.35;;;1.70;;
45620;SDS011;31345;51.522;10.702;2022-10-16T02:21:41;2.22;;;1.60;;
45620;SDS011;31345;51.522;10.702;2022-10-16T02:24:13;3.95;;;1.40;;
45620;SDS011;31345;51.522;10.702;2022-10-16T02:26:48;3.70;;;1.92;;
45620;SDS011;31345;51.522;10.702;2022-10-16T02:29:20;4.13;;;1.40;;
45620;SDS011;31345;51.522;10.702;2022-10-16T02:31:52;2.55;;;1.73;;
45620;SDS011;31345;51.522;10.702;2022-10-16T02:34:24;4.10;;;1.60;;
45620;SDS011;31345;51.522;10.702;2022-10-16T02:36:53;3.00;;;2.08;;
45620;SDS011;31345;51.522;10.702;2022-10-16T02:39:22;2.33;;;1.70;;
45620;SDS011;31345;51.522;10.702;2022-10-16T02:41:51;2.90;;;2.33;;
45620;SDS011;31345;51.522;10.702;2022-10-16T02:44:20;3.67;;;2.25;;
45620;SDS011;31345;51.522;10.702;2022-10-16T02:46:48;5.75;;;2.20;;
45620;SDS011;31345;51.522;10.702;2022-10-16T02:49:15;7.40;;;2.80;;
45620;SDS011;31345;51.522;10.702;2022-10-16T02:51:44;3.67;;;2.42;;
45620;SDS011;31345;51.522;10.702;2022-10-16T02:54:11;2.90;;;2.22;;
45620;SDS011;31345;51.522;10.702;2022-10-16T02:56:39;5.05;;;3.05;;
45620;SDS011;31345;51.522;10.702;2022-10-16T02:59:07;2.97;;;2.53;;
45620;SDS011;31345;51.522;10.702;2022-10-16T03:01:36;2.53;;;2.33;;
45620;SDS011;31345;51.522;10.702;2022-10-16T03:04:04;3.30;;;2.65;;
45620;SDS011;31345;51.522;10.702;2022-10-16T03:06:31;2.90;;;2.60;;
45620;SDS011;31345;51.522;10.702;2022-10-16T03:08:59;3.22;;;2.40;;
45620;SDS011;31345;51.522;10.702;2022-10-16T03:11:27;3.20;;;2.60;;
45620;SDS011;31345;51.522;10.702;2022-10-16T03:13:55;3.22;;;2.53;;
45620;SDS011;31345;51.522;10.702;2022-10-16T03:16:22;2.50;;;1.92;;
45620;SDS011;31345;51.522;10.702;2022-10-16T03:18:51;4.15;;;2.50;;
45620;SDS011;31345;51.522;10.702;2022-10-16T03:23:48;4.65;;;2.40;;
45620;SDS011;31345;51.522;10.702;2022-10-16T03:26:16;4.00;;;2.60;;
45620;SDS011;31345;51.522;10.702;2022-10-16T03:28:43;3.08;;;2.47;;
45620;SDS011;31345;51.522;10.702;2022-10-16T03:31:11;3.38;;;2.60;;
45620;SDS011;31345;51.522;10.702;2022-10-16T03:33:39;4.32;;;2.38;;
45620;SDS011;31345;51.522;10.702;2022-10-16T03:36:08;3.88;;;2.42;;
45620;SDS011;31345;51.522;10.702;2022-10-16T03:38:35;3.83;;;2.33;;
45620;SDS011;31345;51.522;10.702;2022-10-16T03:41:03;2.30;;;2.10;;
45620;SDS011;31345;51.522;10.702;2022-10-16T03:43:33;5.07;;;2.50;;
45620;SDS011;31345;51.522;10.702;2022-10-16T03:46:01;2.72;;;2.42;;
45620;SDS011;31345;51.522;10.702;2022-10-16T03:48:29;3.88;;;2.40;;
45620;SDS011;31345;51.522;10.702;2022-10-16T03:50:58;3.42;;;2.55;;
45620;SDS011;31345;51.522;10.702;2022-10-16T03:53:27;3.47;;;2.75;;
45620;SDS011;31345;51.522;10.702;2022-10-16T03:55:54;3.15;;;2.78;;
45620;SDS011;31345;51.522;10.702;2022-10-16T03:58:22;3.90;;;2.78;;
45620;SDS011;31345;51.522;10.702;2022-10-16T04:00:50;3.97;;;2.75;;
45620;SDS011;31345;51.522;10.702;2022-10-16T04:03:18;13.60;;;3.00;;
45620;SDS011;31345;51.522;10.702;2022-10-16T04:05:47;5.43;;;3.22;;
45620;SDS011;31345;51.522;10.702;2022-10-16T04:08:15;3.78;;;3.10;;
45620;SDS011;31345;51.522;10.702;2022-10-16T04:10:44;3.97;;;2.50;;
45620;SDS011;31345;51.522;10.702;2022-10-16T04:13:12;4.53;;;3.08;;
45620;SDS011;31345;51.522;10.702;2022-10-16T04:15:40;4.43;;;3.10;;
45620;SDS011;31345;51.522;10.702;2022-10-16T04:18:08;3.42;;;2.88;;
45620;SDS011;31345;51.522;10.702;2022-10-16T04:20:35;5.72;;;2.70;;
45620;SDS011;31345;51.522;10.702;2022-10-16T04:23:03;3.47;;;2.70;;
45620;SDS011;31345;51.522;10.702;2022-10-16T04:25:31;3.15;;;2.85;;
45620;SDS011;31345;51.522;10.702;2022-10-16T04:28:00;3.92;;;3.10;;
45620;SDS011;31345;51.522;10.702;2022-10-16T04:30:28;4.97;;;3.00;;
45620;SDS011;31345;51.522;10.702;2022-10-16T04:32:55;7.80;;;2.97;;
45620;SDS011;31345;51.522;10.702;2022-10-16T04:35:23;4.43;;;3.45;;
45620;SDS011;31345;51.522;10.702;2022-10-16T04:37:51;4.10;;;3.03;;
45620;SDS011;31345;51.522;10.702;2022-10-16T04:40:19;5.72;;;3.00;;
45620;SDS011;31345;51.522;10.702;2022-10-16T04:42:46;3.38;;;3.00;;
45620;SDS011;31345;51.522;10.702;2022-10-16T04:45:15;7.50;;;2.80;;
45620;SDS011;31345;51.522;10.702;2022-10-16T04:47:43;4.45;;;3.17;;
45620;SDS011;31345;51.522;10.702;2022-10-16T04:50:11;3.45;;;3.08;;
45620;SDS011;31345;51.522;10.702;2022-10-16T04:52:39;4.47;;;3.28;;
45620;SDS011;31345;51.522;10.702;2022-10-16T04:58:26;4.45;;;3.00;;
45620;SDS011;31345;51.522;10.702;2022-10-16T05:00:59;4.13;;;2.85;;
45620;SDS011;31345;51.522;10.702;2022-10-16T05:03:27;4.57;;;3.05;;
45620;SDS011;31345;51.522;10.702;2022-10-16T05:05:55;4.40;;;3.53;;
45620;SDS011;31345;51.522;10.702;2022-10-16T05:08:23;5.93;;;3.53;;
45620;SDS011;31345;51.522;10.702;2022-10-16T05:10:53;4.32;;;3.80;;
45620;SDS011;31345;51.522;10.702;2022-10-16T05:13:21;4.37;;;3.83;;
45620;SDS011;31345;51.522;10.702;2022-10-16T05:15:49;5.97;;;3.97;;
45620;SDS011;31345;51.522;10.702;2022-10-16T05:18:21;6.07;;;3.83;;
45620;SDS011;31345;51.522;10.702;2022-10-16T05:20:48;5.47;;;4.10;;
45620;SDS011;31345;51.522;10.702;2022-10-16T05:23:16;8.35;;;3.85;;
45620;SDS011;31345;51.522;10.702;2022-10-16T05:25:51;6.72;;;3.92;;
45620;SDS011;31345;51.522;10.702;2022-10-16T05:28:30;5.90;;;4.72;;
45620;SDS011;31345;51.522;10.702;2022-10-16T05:30:58;4.05;;;3.28;;
45620;SDS011;31345;51.522;10.702;2022-10-16T05:33:28;4.97;;;3.80;;
45620;SDS011;31345;51.522;10.702;2022-10-16T05:35:55;5.93;;;3.83;;
45620;SDS011;31345;51.522;10.702;2022-10-16T05:38:23;5.78;;;3.53;;
45620;SDS011;31345;51.522;10.702;2022-10-16T05:40:51;4.40;;;3.70;;
45620;SDS011;31345;51.522;10.702;2022-10-16T05:43:19;5.13;;;3.42;;
45620;SDS011;31345;51.522;10.702;2022-10-16T05:45:54;5.63;;;3.70;;
45620;SDS011;31345;51.522;10.702;2022-10-16T05:48:22;3.63;;;3.30;;
45620;SDS011;31345;51.522;10.702;2022-10-16T05:50:58;4.53;;;3.50;;
45620;SDS011;31345;51.522;10.702;2022-10-16T05:53:27;4.93;;;3.40;;
45620;SDS011;31345;51.522;10.702;2022-10-16T05:55:56;4.82;;;3.50;;
45620;SDS011;31345;51.522;10.702;2022-10-16T05:58:25;5.05;;;2.88;;
45620;SDS011;31345;51.522;10.702;2022-10-16T06:00:58;5.97;;;3.00;;
45620;SDS011;31345;51.522;10.702;2022-10-16T06:03:27;4.95;;;3.10;;
45620;SDS011;31345;51.522;10.702;2022-10-16T06:05:56;4.75;;;3.55;;
45620;SDS011;31345;51.522;10.702;2022-10-16T06:08:27;6.45;;;3.30;;
45620;SDS011;31345;51.522;10.702;2022-10-16T06:11:01;5.40;;;3.00;;
45620;SDS011;31345;51.522;10.702;2022-10-16T06:13:29;3.92;;;2.70;;
45620;SDS011;31345;51.522;10.702;2022-10-16T06:19:14;3.95;;;2.58;;
45620;SDS011;31345;51.522;10.702;2022-10-16T06:21:44;3.22;;;2.70;;
45620;SDS011;31345;51.522;10.702;2022-10-16T06:24:12;4.25;;;2.25;;
45620;SDS011;31345;51.522;10.702;2022-10-16T06:26:43;3.85;;;2.63;;
45620;SDS011;31345;51.522;10.702;2022-10-16T06:29:11;4.43;;;2.40;;
45620;SDS011;31345;51.522;10.702;2022-10-16T06:31:39;2.28;;;2.08;;
45620;SDS011;31345;51.522;10.702;2022-10-16T06:34:08;3.50;;;2.40;;
45620;SDS011;31345;51.522;10.702;2022-10-16T06:36:37;5.00;;;2.63;;
45620;SDS011;31345;51.522;10.702;2022-10-16T06:39:07;3.80;;;2.40;;
45620;SDS011;31345;51.522;10.702;2022-10-16T06:41:35;4.43;;;2.20;;
45620;SDS011;31345;51.522;10.702;2022-10-16T06:44:14;4.80;;;3.13;;
45620;SDS011;31345;51.522;10.702;2022-10-16T06:46:42;5.30;;;3.10;;
45620;SDS011;31345;51.522;10.702;2022-10-16T06:49:10;2.38;;;1.95;;
45620;SDS011;31345;51.522;10.702;2022-10-16T06:51:37;4.15;;;2.28;;
45620;SDS011;31345;51.522;10.702;2022-10-16T06:54:08;5.18;;;2.88;;
45620;SDS011;31345;51.522;10.702;2022-10-16T06:56:36;3.75;;;2.20;;
45620;SDS011;31345;51.522;10.702;2022-10-16T06:59:04;2.60;;;2.28;;
45620;SDS011;31345;51.522;10.702;2022-10-16T07:01:35;3.88;;;2.10;;
45620;SDS011;31345;51.522;10.702;2022-10-16T07:07:20;2.83;;;2.30;;
45620;SDS011;31345;51.522;10.702;2022-10-16T07:09:52;2.75;;;2.17;;
45620;SDS011;31345;51.522;10.702;2022-10-16T07:12:22;4.57;;;2.05;;
45620;SDS011;31345;51.522;10.702;2022-10-16T07:14:50;2.95;;;2.05;;
45620;SDS011;31345;51.522;10.702;2022-10-16T07:17:18;3.58;;;1.80;;
45620;SDS011;31345;51.522;10.702;2022-10-16T07:19:45;3.92;;;1.70;;
45620;SDS011;31345;51.522;10.702;2022-10-16T07:22:13;2.75;;;1.85;;
45620;SDS011;31345;51.522;10.702;2022-10-16T07:24:41;4.20;;;1.90;;
45620;SDS011;31345;51.522;10.702;2022-10-16T07:27:10;3.13;;;2.60;;
45620;SDS011;31345;51.522;10.702;2022-10-16T07:29:38;2.70;;;2.35;;
45620;SDS011;31345;51.522;10.702;2022-10-16T07:32:06;4.53;;;2.30;;
45620;SDS011;31345;51.522;10.702;2022-10-16T07:34:34;5.50;;;2.30;;
45620;SDS011;31345;51.522;10.702;2022-10-16T07:39:33;4.07;;;2.08;;
45620;SDS011;31345;51.522;10.702;2022-10-16T07:42:00;3.05;;;2.03;;
45620;SDS011;31345;51.522;10.702;2022-10-16T07:44:29;2.45;;;1.83;;
45620;SDS011;31345;51.522;10.702;2022-10-16T07:47:00;3.95;;;1.73;;
45620;SDS011;31345;51.522;10.702;2022-10-16T07:49:28;3.85;;;1.70;;
45620;SDS011;31345;51.522;10.702;2022-10-16T07:51:59;5.13;;;2.10;;
45620;SDS011;31345;51.522;10.702;2022-10-16T07:54:27;3.65;;;1.58;;
45620;SDS011;31345;51.522;10.702;2022-10-16T07:56:54;3.70;;;1.80;;
45620;SDS011;31345;51.522;10.702;2022-10-16T07:59:24;2.50;;;1.98;;
45620;SDS011;31345;51.522;10.702;2022-10-16T08:01:56;3.03;;;1.77;;
45620;SDS011;31345;51.522;10.702;2022-10-16T08:04:24;6.45;;;2.65;;
45620;SDS011;31345;51.522;10.702;2022-10-16T08:09:48;3.35;;;1.40;;
45620;SDS011;31345;51.522;10.702;2022-10-16T08:12:16;3.17;;;1.85;;
45620;SDS011;31345;51.522;10.702;2022-10-16T08:14:44;2.97;;;1.55;;
45620;SDS011;31345;51.522;10.702;2022-10-16T08:17:14;3.97;;;1.40;;
45620;SDS011;31345;51.522;10.702;2022-10-16T08:19:44;2.13;;;1.50;;
45620;SDS011;31345;51.522;10.702;2022-10-16T08:22:12;4.47;;;1.58;;
45620;SDS011;31345;51.522;10.702;2022-10-16T08:24:40;1.90;;;1.48;;
45620;SDS011;31345;51.522;10.702;2022-10-16T08:27:08;5.63;;;1.50;;
45620;SDS011;31345;51.522;10.702;2022-10-16T08:29:36;1.88;;;1.27;;
45620;SDS011;31345;51.522;10.702;2022-10-16T08:32:04;2.70;;;2.08;;
45620;SDS011;31345;51.522;10.702;2022-10-16T08:34:33;5.47;;;4.28;;
45620;SDS011;31345;51.522;10.702;2022-10-16T08:37:01;6.13;;;4.70;;
45620;SDS011;31345;51.522;10.702;2022-10-16T08:39:29;4.18;;;3.60;;
45620;SDS011;31345;51.522;10.702;2022-10-16T08:45:02;7.93;;;5.97;;
45620;SDS011;31345;51.522;10.702;2022-10-16T08:47:49;6.15;;;5.20;;
45620;SDS011;31345;51.522;10.702;2022-10-16T08:50:30;5.47;;;3.67;;
45620;SDS011;31345;51.522;10.702;2022-10-16T08:56:25;6.15;;;3.15;;
45620;SDS011;31345;51.522;10.702;2022-10-16T08:58:53;4.68;;;2.97;;
45620;SDS011;31345;51.522;10.702;2022-10-16T09:07:48;2.22;;;1.55;;
45620;SDS011;31345;51.522;10.702;2022-10-16T09:10:35;5.03;;;2.22;;
45620;SDS011;31345;51.522;10.702;2022-10-16T09:13:14;3.83;;;1.35;;
45620;SDS011;31345;51.522;10.702;2022-10-16T09:15:53;3.05;;;0.90;;
45620;SDS011;31345;51.522;10.702;2022-10-16T09:18:36;1.60;;;1.10;;
45620;SDS011;31345;51.522;10.702;2022-10-16T09:21:14;1.48;;;1.00;;
45620;SDS011;31345;51.522;10.702;2022-10-16T09:26:44;1.58;;;0.95;;
45620;SDS011;31345;51.522;10.702;2022-10-16T09:32:07;2.60;;;1.40;;
45620;SDS011;31345;51.522;10.702;2022-10-16T09:34:39;4.63;;;1.70;;
45620;SDS011;31345;51.522;10.702;2022-10-16T09:37:11;4.15;;;1.48;;
45620;SDS011;31345;51.522;10.702;2022-10-16T09:39:45;1.27;;;0.82;;
45620;SDS011;31345;51.522;10.702;2022-10-16T09:42:14;2.40;;;1.20;;
45620;SDS011;31345;51.522;10.702;2022-10-16T09:44:46;1.55;;;0.95;;
45620;SDS011;31345;51.522;10.702;2022-10-16T09:47:17;1.88;;;0.90;;
45620;SDS011;31345;51.522;10.702;2022-10-16T09:53:19;3.70;;;1.00;;
45620;SDS011;31345;51.522;10.702;2022-10-16T09:55:50;2.58;;;0.82;;
45620;SDS011;31345;51.522;10.702;2022-10-16T09:58:21;2.17;;;1.20;;
45620;SDS011;31345;51.522;10.702;2022-10-16T10:00:49;0.85;;;0.80;;
45620;SDS011;31345;51.522;10.702;2022-10-16T10:03:25;1.58;;;1.10;;
45620;SDS011;31345;51.522;10.702;2022-10-16T10:06:01;2.00;;;0.95;;
45620;SDS011;31345;51.522;10.702;2022-10-16T10:08:53;3.38;;;0.98;;
45620;SDS011;31345;51.522;10.702;2022-10-16T10:14:27;4.80;;;1.20;;
45620;SDS011;31345;51.522;10.702;2022-10-16T10:17:15;1.27;;;0.80;;
45620;SDS011;31345;51.522;10.702;2022-10-16T10:19:49;1.52;;;1.00;;
45620;SDS011;31345;51.522;10.702;2022-10-16T10:22:29;3.45;;;0.98;;
45620;SDS011;31345;51.522;10.702;2022-10-16T10:28:07;2.42;;;1.23;;
45620;SDS011;31345;51.522;10.702;2022-10-16T10:31:00;2.40;;;0.75;;
45620;SDS011;31345;51.522;10.702;2022-10-16T10:33:57;0.82;;;0.60;;
45620;SDS011;31345;51.522;10.702;2022-10-16T10:36:36;1.23;;;0.60;;
45620;SDS011;31345;51.522;10.702;2022-10-16T10:39:06;2.03;;;0.80;;
45620;SDS011;31345;51.522;10.702;2022-10-16T10:41:45;1.20;;;0.73;;
45620;SDS011;31345;51.522;10.702;2022-10-16T10:44:34;0.88;;;0.52;;
45620;SDS011;31345;51.522;10.702;2022-10-16T10:47:16;1.17;;;0.70;;
45620;SDS011;31345;51.522;10.702;2022-10-16T10:50:17;1.60;;;0.55;;
45620;SDS011;31345;51.522;10.702;2022-10-16T10:52:53;2.15;;;0.75;;
45620;SDS011;31345;51.522;10.702;2022-10-16T10:55:31;2.17;;;0.60;;
45620;SDS011;31345;51.522;10.702;2022-10-16T11:01:13;1.08;;;0.80;;
45620;SDS011;31345;51.522;10.702;2022-10-16T11:03:55;0.82;;;0.60;;
45620;SDS011;31345;51.522;10.702;2022-10-16T11:06:34;2.05;;;0.57;;
45620;SDS011;31345;51.522;10.702;2022-10-16T11:09:08;1.13;;;0.50;;
45620;SDS011;31345;51.522;10.702;2022-10-16T11:11:41;1.60;;;0.60;;
45620;SDS011;31345;51.522;10.702;2022-10-16T11:14:14;1.00;;;0.70;;
45620;SDS011;31345;51.522;10.702;2022-10-16T11:16:48;2.05;;;0.70;;
45620;SDS011;31345;51.522;10.702;2022-10-16T11:19:22;2.50;;;0.50;;
45620;SDS011;31345;51.522;10.702;2022-10-16T11:22:01;1.50;;;0.70;;
45620;SDS011;31345;51.522;10.702;2022-10-16T11:24:35;0.73;;;0.40;;
45620;SDS011;31345;51.522;10.702;2022-10-16T11:27:08;1.25;;;0.70;;
45620;SDS011;31345;51.522;10.702;2022-10-16T11:29:41;1.65;;;0.57;;
45620;SDS011;31345;51.522;10.702;2022-10-16T11:32:18;1.50;;;0.50;;
45620;SDS011;31345;51.522;10.702;2022-10-16T11:34:51;1.10;;;0.50;;
45620;SDS011;31345;51.522;10.702;2022-10-16T11:37:25;1.05;;;0.60;;
45620;SDS011;31345;51.522;10.702;2022-10-16T11:39:58;1.45;;;0.65;;
45620;SDS011;31345;51.522;10.702;2022-10-16T11:42:39;0.63;;;0.50;;
45620;SDS011;31345;51.522;10.702;2022-10-16T11:45:15;2.65;;;0.75;;
45620;SDS011;31345;51.522;10.702;2022-10-16T11:47:57;1.30;;;0.50;;
45620;SDS011;31345;51.522;10.702;2022-10-16T11:50:30;2.72;;;0.70;;
45620;SDS011;31345;51.522;10.702;2022-10-16T11:53:03;0.50;;;0.40;;
45620;SDS011;31345;51.522;10.702;2022-10-16T11:55:41;0.45;;;0.43;;
45620;SDS011;31345;51.522;10.702;2022-10-16T11:58:13;0.93;;;0.45;;
45620;SDS011;31345;51.522;10.702;2022-10-16T12:00:55;0.98;;;0.40;;
45620;SDS011;31345;51.522;10.702;2022-10-16T12:03:31;1.15;;;0.50;;
45620;SDS011;31345;51.522;10.702;2022-10-16T12:06:25;0.95;;;0.40;;
45620;SDS011;31345;51.522;10.702;2022-10-16T12:08:58;1.15;;;0.57;;
45620;SDS011;31345;51.522;10.702;2022-10-16T12:11:31;1.25;;;0.52;;
45620;SDS011;31345;51.522;10.702;2022-10-16T12:17:23;0.90;;;0.50;;
45620;SDS011;31345;51.522;10.702;2022-10-16T12:20:02;1.85;;;0.70;;
45620;SDS011;31345;51.522;10.702;2022-10-16T12:22:53;1.70;;;0.52;;
45620;SDS011;31345;51.522;10.702;2022-10-16T12:25:24;0.63;;;0.50;;
45620;SDS011;31345;51.522;10.702;2022-10-16T12:30:23;2.72;;;0.60;;
45620;SDS011;31345;51.522;10.702;2022-10-16T12:32:53;3.15;;;0.57;;
45620;SDS011;31345;51.522;10.702;2022-10-16T12:35:25;0.52;;;0.52;;
45620;SDS011;31345;51.522;10.702;2022-10-16T12:38:03;1.25;;;0.60;;
45620;SDS011;31345;51.522;10.702;2022-10-16T12:40:41;1.60;;;0.70;;
45620;SDS011;31345;51.522;10.702;2022-10-16T12:43:12;1.43;;;0.50;;
45620;SDS011;31345;51.522;10.702;2022-10-16T12:45:58;1.95;;;0.63;;
45620;SDS011;31345;51.522;10.702;2022-10-16T12:48:28;0.40;;;0.40;;
45620;SDS011;31345;51.522;10.702;2022-10-16T12:51:08;0.77;;;0.45;;
45620;SDS011;31345;51.522;10.702;2022-10-16T12:53:37;1.17;;;0.45;;
45620;SDS011;31345;51.522;10.702;2022-10-16T12:56:09;1.02;;;0.63;;
45620;SDS011;31345;51.522;10.702;2022-10-16T12:58:49;2.60;;;0.60;;
45620;SDS011;31345;51.522;10.702;2022-10-16T13:01:29;0.80;;;0.50;;
45620;SDS011;31345;51.522;10.702;2022-10-16T13:04:14;1.73;;;0.43;;
45620;SDS011;31345;51.522;10.702;2022-10-16T13:07:15;0.82;;;0.57;;
45620;SDS011;31345;51.522;10.702;2022-10-16T13:09:58;1.00;;;0.50;;
45620;SDS011;31345;51.522;10.702;2022-10-16T13:12:40;2.58;;;0.60;;
45620;SDS011;31345;51.522;10.702;2022-10-16T13:15:27;2.15;;;0.40;;
45620;SDS011;31345;51.522;10.702;2022-10-16T13:18:04;1.60;;;0.45;;
45620;SDS011;31345;51.522;10.702;2022-10-16T13:20:46;1.48;;;0.50;;
45620;SDS011;31345;51.522;10.702;2022-10-16T13:23:28;0.57;;;0.40;;
45620;SDS011;31345;51.522;10.702;2022-10-16T13:26:06;1.70;;;0.50;;
45620;SDS011;31345;51.522;10.702;2022-10-16T13:28:41;1.00;;;0.60;;
45620;SDS011;31345;51.522;10.702;2022-10-16T13:31:11;1.10;;;0.50;;
45620;SDS011;31345;51.522;10.702;2022-10-16T13:33:44;0.70;;;0.40;;
45620;SDS011;31345;51.522;10.702;2022-10-16T13:36:20;4.13;;;0.70;;
45620;SDS011;31345;51.522;10.702;2022-10-16T13:38:52;1.67;;;0.50;;
45620;SDS011;31345;51.522;10.702;2022-10-16T13:41:27;1.25;;;0.40;;
45620;SDS011;31345;51.522;10.702;2022-10-16T13:43:55;0.38;;;0.38;;
45620;SDS011;31345;51.522;10.702;2022-10-16T13:46:24;1.38;;;0.40;;
45620;SDS011;31345;51.522;10.702;2022-10-16T13:48:56;1.95;;;0.52;;
45620;SDS011;31345;51.522;10.702;2022-10-16T13:51:24;1.35;;;0.45;;
45620;SDS011;31345;51.522;10.702;2022-10-16T13:53:55;5.03;;;0.70;;
45620;SDS011;31345;51.522;10.702;2022-10-16T13:56:25;1.60;;;0.50;;
45620;SDS011;31345;51.522;10.702;2022-10-16T13:58:57;2.65;;;0.52;;
45620;SDS011;31345;51.522;10.702;2022-10-16T14:01:27;0.85;;;0.35;;
45620;SDS011;31345;51.522;10.702;2022-10-16T14:04:00;1.75;;;0.50;;
45620;SDS011;31345;51.522;10.702;2022-10-16T14:06:31;1.15;;;0.60;;
45620;SDS011;31345;51.522;10.702;2022-10-16T14:09:08;3.97;;;0.63;;
45620;SDS011;31345;51.522;10.702;2022-10-16T14:11:46;0.90;;;0.50;;
45620;SDS011;31345;51.522;10.702;2022-10-16T14:14:17;0.90;;;0.52;;
45620;SDS011;31345;51.522;10.702;2022-10-16T14:16:47;3.00;;;0.60;;
45620;SDS011;31345;51.522;10.702;2022-10-16T14:19:17;1.08;;;0.50;;
45620;SDS011;31345;51.522;10.702;2022-10-16T14:21:48;1.10;;;0.40;;
45620;SDS011;31345;51.522;10.702;2022-10-16T14:24:31;1.63;;;0.60;;
45620;SDS011;31345;51.522;10.702;2022-10-16T14:27:01;1.92;;;0.65;;
45620;SDS011;31345;51.522;10.702;2022-10-16T14:29:29;0.90;;;0.38;;
45620;SDS011;31345;51.522;10.702;2022-10-16T14:31:58;0.93;;;0.40;;
45620;SDS011;31345;51.522;10.702;2022-10-16T14:34:29;1.02;;;0.60;;
45620;SDS011;31345;51.522;10.702;2022-10-16T14:36:59;0.60;;;0.40;;
45620;SDS011;31345;51.522;10.702;2022-10-16T14:39:34;1.05;;;0.50;;
45620;SDS011;31345;51.522;10.702;2022-10-16T14:42:05;1.55;;;0.52;;
45620;SDS011;31345;51.522;10.702;2022-10-16T14:44:43;0.82;;;0.50;;
45620;SDS011;31345;51.522;10.702;2022-10-16T14:47:12;2.42;;;0.52;;
45620;SDS011;31345;51.522;10.702;2022-10-16T14:49:43;0.70;;;0.50;;
45620;SDS011;31345;51.522;10.702;2022-10-16T14:52:11;2.22;;;0.82;;
45620;SDS011;31345;51.522;10.702;2022-10-16T14:54:42;0.82;;;0.52;;
45620;SDS011;31345;51.522;10.702;2022-10-16T14:57:16;3.47;;;0.60;;
45620;SDS011;31345;51.522;10.702;2022-10-16T14:59:45;0.40;;;0.40;;
45620;SDS011;31345;51.522;10.702;2022-10-16T15:02:16;3.70;;;0.57;;
45620;SDS011;31345;51.522;10.702;2022-10-16T15:04:48;1.58;;;0.50;;
45620;SDS011;31345;51.522;10.702;2022-10-16T15:07:16;0.75;;;0.40;;
45620;SDS011;31345;51.522;10.702;2022-10-16T15:09:45;1.58;;;0.70;;
45620;SDS011;31345;51.522;10.702;2022-10-16T15:12:13;1.70;;;0.57;;
45620;SDS011;31345;51.522;10.702;2022-10-16T15:14:40;3.15;;;0.80;;
45620;SDS011;31345;51.522;10.702;2022-10-16T15:17:08;2.05;;;0.57;;
45620;SDS011;31345;51.522;10.702;2022-10-16T15:19:37;0.98;;;0.50;;
45620;SDS011;31345;51.522;10.702;2022-10-16T15:22:04;1.55;;;0.50;;
45620;SDS011;31345;51.522;10.702;2022-10-16T15:24:32;3.83;;;0.75;;
45620;SDS011;31345;51.522;10.702;2022-10-16T15:27:01;0.57;;;0.50;;
45620;SDS011;31345;51.522;10.702;2022-10-16T15:29:30;1.23;;;0.50;;
45620;SDS011;31345;51.522;10.702;2022-10-16T15:31:58;0.85;;;0.50;;
45620;SDS011;31345;51.522;10.702;2022-10-16T15:34:25;1.70;;;0.50;;
45620;SDS011;31345;51.522;10.702;2022-10-16T15:36:53;0.98;;;0.57;;
45620;SDS011;31345;51.522;10.702;2022-10-16T15:39:22;1.92;;;0.57;;
45620;SDS011;31345;51.522;10.702;2022-10-16T15:41:50;1.48;;;0.57;;
45620;SDS011;31345;51.522;10.702;2022-10-16T15:44:20;1.00;;;0.50;;
45620;SDS011;31345;51.522;10.702;2022-10-16T15:46:49;3.45;;;0.70;;
45620;SDS011;31345;51.522;10.702;2022-10-16T15:49:17;1.48;;;0.63;;
45620;SDS011;31345;51.522;10.702;2022-10-16T15:51:45;1.08;;;0.50;;
45620;SDS011;31345;51.522;10.702;2022-10-16T15:54:13;4.28;;;0.82;;
45620;SDS011;31345;51.522;10.702;2022-10-16T15:56:41;5.65;;;0.90;;
45620;SDS011;31345;51.522;10.702;2022-10-16T15:59:09;1.55;;;0.50;;